Hauptseite
METAR-TAF:

METAR-TAF

Flughäfen :

Belfast International Airport

Belfast, Nordirland

Breite: 54-39N, Länge: 006-13W, Höhe: 81 m

Beobachtung

Neuester Wetterbericht von vor 17 Minuten, um 10:50 UTC
Wind 6 kt aus Süd, variierte zwischen Südost und Südwest
Temperatur 17°C
Luftfeuchtigkeit 72%
Luftdruck 1017 hPa
Sichtweite: 8000 m

METAR: EGAA 211050Z 18006KT 130V220 8000 NSC 17/12 Q1017

Zeit: 12:07 (11:07 UTC)

Prognose

Neuester Wetterbericht von vor 6 Stunden und 11 Minuten, um 04:56 UTC
Gültige Prognose vom 21 um 06 UTC bis 22 um 06 UTC
Wind 9 kt aus Süd
Sichtweite: 7000 m
Leicht bewölkt in der Höhe von 3000 ft
Wahrscheinlichkeit 40%
vom 21 um 06 UTC bis 21 um 10 UTC
Sichtweite 10 km oder mehr
Übergehend zu
vom 21 um 10 UTC bis 21 um 13 UTC
Sichtweite 10 km oder mehr

TAF: EGAA 210456Z 2106/2206 19009KT 7000 FEW030 PROB40 2106/2110 9999 BECMG 2110/2113 9999

Wetterbeobachtungen und Prognosen von mehr als 4000 Flughäfen (METAR und TAF Bericht).

Die verfügbaren Stationen werden durch gelbe und rote Markierungen auf der Karte dargestellt.

Führen Sie die Maus auf sie, um den Namen der Station zu sehen.

Darauf klicken, um die Beobachtung von Wetterbeobachtungen und Prognosen zu sehen.

Um die Karte zu ändern : klicken Sie auf den grünen Tasten mit einem schwarzen Kreuz Zum Vergrößern, auf den grünen Button mit einem Gedankenstrich zu verkleinern, oder auf die grünen Pfeile für benachbarte Karten.


METAR-TAF: